Clay Township, Michigan
Current Conditions -  °F | °C
As of 12:55 PM on Thursday 18 Dec 2014 (Local Time) from KMTC Reporting Station
Overcast Overcast  
Wind Chill: 25°   Ceiling: 1800
Heat Index: 33°   Visibility: 7mi
Dew Point: 28°   Wind: 10mph
Humidity: 81%   Direction: 270°W
Pressure: 30.14"   Gusts: NA
Location:  42.6418°N, 82.5677°W
Report Text: KMTC 181755Z 27009KT 7SM BKN018 OVC023 01/M02 A3014 RMK SLP218 60000 T00071022 10007 21012 58012
Loading
Personal Weather Stations






























Interactive Weather Map New forecast layout! Learn more

10-Day Weather Forecast

Advertisements
Track Severe Weather on mobile